sensor_id;sensor_type;location;lat;lon;timestamp;temperature;humidity
14006;DHT22;7078;51.542;7.314;2022-09-09T00:04:35;15.20;99.90
14006;DHT22;7078;51.542;7.314;2022-09-09T00:07:06;15.20;99.90
14006;DHT22;7078;51.542;7.314;2022-09-09T00:09:49;15.20;99.90
14006;DHT22;7078;51.542;7.314;2022-09-09T00:23:29;15.00;99.90
14006;DHT22;7078;51.542;7.314;2022-09-09T00:25:58;15.00;99.90
14006;DHT22;7078;51.542;7.314;2022-09-09T00:28:27;15.00;99.90
14006;DHT22;7078;51.542;7.314;2022-09-09T00:30:55;15.00;99.90
14006;DHT22;7078;51.542;7.314;2022-09-09T00:33:23;15.00;99.90
14006;DHT22;7078;51.542;7.314;2022-09-09T00:35:53;15.00;99.90
14006;DHT22;7078;51.542;7.314;2022-09-09T00:38:25;14.90;99.90
14006;DHT22;7078;51.542;7.314;2022-09-09T00:40:59;15.00;99.90
14006;DHT22;7078;51.542;7.314;2022-09-09T00:43:29;15.00;99.90
14006;DHT22;7078;51.542;7.314;2022-09-09T00:54:54;14.90;99.90
14006;DHT22;7078;51.542;7.314;2022-09-09T01:07:58;14.90;99.90
14006;DHT22;7078;51.542;7.314;2022-09-09T01:10:50;14.90;99.90
14006;DHT22;7078;51.542;7.314;2022-09-09T01:13:30;14.90;99.90
14006;DHT22;7078;51.542;7.314;2022-09-09T01:16:01;14.90;99.90
14006;DHT22;7078;51.542;7.314;2022-09-09T01:18:37;14.80;99.90
14006;DHT22;7078;51.542;7.314;2022-09-09T01:26:50;14.80;99.90
14006;DHT22;7078;51.542;7.314;2022-09-09T01:29:18;14.90;99.90
14006;DHT22;7078;51.542;7.314;2022-09-09T01:34:24;14.90;99.90
14006;DHT22;7078;51.542;7.314;2022-09-09T01:39:25;14.90;99.90
14006;DHT22;7078;51.542;7.314;2022-09-09T01:41:52;14.90;99.90
14006;DHT22;7078;51.542;7.314;2022-09-09T01:44:19;14.80;99.90
14006;DHT22;7078;51.542;7.314;2022-09-09T01:46:45;14.80;99.90
14006;DHT22;7078;51.542;7.314;2022-09-09T01:49:11;14.80;99.90
14006;DHT22;7078;51.542;7.314;2022-09-09T01:51:37;14.70;99.90
14006;DHT22;7078;51.542;7.314;2022-09-09T01:54:04;14.70;99.90
14006;DHT22;7078;51.542;7.314;2022-09-09T01:56:39;14.70;99.90
14006;DHT22;7078;51.542;7.314;2022-09-09T01:59:23;14.70;99.90
14006;DHT22;7078;51.542;7.314;2022-09-09T02:02:07;14.70;99.90
14006;DHT22;7078;51.542;7.314;2022-09-09T02:04:47;14.70;99.90
14006;DHT22;7078;51.542;7.314;2022-09-09T02:10:00;14.80;99.90
14006;DHT22;7078;51.542;7.314;2022-09-09T02:12:27;15.00;99.90
14006;DHT22;7078;51.542;7.314;2022-09-09T02:15:03;14.90;99.90
14006;DHT22;7078;51.542;7.314;2022-09-09T02:17:34;14.90;99.90
14006;DHT22;7078;51.542;7.314;2022-09-09T02:20:19;14.90;99.90
14006;DHT22;7078;51.542;7.314;2022-09-09T02:22:49;14.90;99.90
14006;DHT22;7078;51.542;7.314;2022-09-09T02:25:19;14.90;99.90
14006;DHT22;7078;51.542;7.314;2022-09-09T02:31:06;14.90;99.90
14006;DHT22;7078;51.542;7.314;2022-09-09T02:33:38;14.90;99.90
14006;DHT22;7078;51.542;7.314;2022-09-09T02:36:05;14.90;99.90
14006;DHT22;7078;51.542;7.314;2022-09-09T02:38:36;14.90;99.90
14006;DHT22;7078;51.542;7.314;2022-09-09T02:41:03;14.80;99.90
14006;DHT22;7078;51.542;7.314;2022-09-09T02:43:33;14.80;99.90
14006;DHT22;7078;51.542;7.314;2022-09-09T02:49:00;14.80;99.90
14006;DHT22;7078;51.542;7.314;2022-09-09T02:52:04;14.80;99.90
14006;DHT22;7078;51.542;7.314;2022-09-09T02:54:31;14.80;99.90
14006;DHT22;7078;51.542;7.314;2022-09-09T02:57:16;14.80;99.90
14006;DHT22;7078;51.542;7.314;2022-09-09T02:59:43;14.80;99.90
14006;DHT22;7078;51.542;7.314;2022-09-09T03:02:09;14.80;99.90
14006;DHT22;7078;51.542;7.314;2022-09-09T03:04:36;14.90;99.90
14006;DHT22;7078;51.542;7.314;2022-09-09T03:07:01;14.90;99.90
14006;DHT22;7078;51.542;7.314;2022-09-09T03:09:29;14.90;99.90
14006;DHT22;7078;51.542;7.314;2022-09-09T03:11:54;14.90;99.90
14006;DHT22;7078;51.542;7.314;2022-09-09T03:14:21;14.90;99.90
14006;DHT22;7078;51.542;7.314;2022-09-09T03:16:50;14.90;99.90
14006;DHT22;7078;51.542;7.314;2022-09-09T03:19:15;14.90;99.90
14006;DHT22;7078;51.542;7.314;2022-09-09T03:21:41;15.00;99.90
14006;DHT22;7078;51.542;7.314;2022-09-09T03:24:06;14.90;99.90
14006;DHT22;7078;51.542;7.314;2022-09-09T03:26:33;14.90;99.90
14006;DHT22;7078;51.542;7.314;2022-09-09T03:28:58;14.90;99.90
14006;DHT22;7078;51.542;7.314;2022-09-09T03:31:26;14.90;99.90
14006;DHT22;7078;51.542;7.314;2022-09-09T03:33:56;14.90;99.90
14006;DHT22;7078;51.542;7.314;2022-09-09T03:36:23;14.90;99.90
14006;DHT22;7078;51.542;7.314;2022-09-09T03:38:49;15.00;99.90
14006;DHT22;7078;51.542;7.314;2022-09-09T03:41:16;14.90;99.90
14006;DHT22;7078;51.542;7.314;2022-09-09T03:43:41;15.00;99.90
14006;DHT22;7078;51.542;7.314;2022-09-09T03:46:07;15.00;99.90
14006;DHT22;7078;51.542;7.314;2022-09-09T03:48:32;14.90;99.90
14006;DHT22;7078;51.542;7.314;2022-09-09T03:50:58;14.90;99.90
14006;DHT22;7078;51.542;7.314;2022-09-09T03:53:25;14.90;99.90
14006;DHT22;7078;51.542;7.314;2022-09-09T03:55:53;14.90;99.90
14006;DHT22;7078;51.542;7.314;2022-09-09T03:58:25;14.90;99.90
14006;DHT22;7078;51.542;7.314;2022-09-09T04:00:56;14.90;99.90
14006;DHT22;7078;51.542;7.314;2022-09-09T04:03:23;14.90;99.90
14006;DHT22;7078;51.542;7.314;2022-09-09T04:05:53;14.90;99.90
14006;DHT22;7078;51.542;7.314;2022-09-09T04:08:22;14.80;99.90
14006;DHT22;7078;51.542;7.314;2022-09-09T04:10:50;14.80;99.90
14006;DHT22;7078;51.542;7.314;2022-09-09T04:13:17;14.80;99.90
14006;DHT22;7078;51.542;7.314;2022-09-09T04:15:44;14.80;99.90
14006;DHT22;7078;51.542;7.314;2022-09-09T04:18:10;14.80;99.90
14006;DHT22;7078;51.542;7.314;2022-09-09T04:20:37;14.80;99.90
14006;DHT22;7078;51.542;7.314;2022-09-09T04:23:03;14.80;99.90
14006;DHT22;7078;51.542;7.314;2022-09-09T04:25:28;14.90;99.90
14006;DHT22;7078;51.542;7.314;2022-09-09T04:27:55;14.90;99.90
14006;DHT22;7078;51.542;7.314;2022-09-09T04:30:21;14.90;99.90
14006;DHT22;7078;51.542;7.314;2022-09-09T04:32:47;14.90;99.90
14006;DHT22;7078;51.542;7.314;2022-09-09T04:35:13;14.90;99.90
14006;DHT22;7078;51.542;7.314;2022-09-09T04:37:38;15.00;99.90
14006;DHT22;7078;51.542;7.314;2022-09-09T04:40:04;15.00;99.90
14006;DHT22;7078;51.542;7.314;2022-09-09T04:42:30;15.00;99.90
14006;DHT22;7078;51.542;7.314;2022-09-09T04:44:59;15.00;99.90
14006;DHT22;7078;51.542;7.314;2022-09-09T04:47:25;15.00;99.90
14006;DHT22;7078;51.542;7.314;2022-09-09T04:49:50;15.10;99.90
14006;DHT22;7078;51.542;7.314;2022-09-09T04:52:16;15.10;99.90
14006;DHT22;7078;51.542;7.314;2022-09-09T04:54:42;15.10;99.90
14006;DHT22;7078;51.542;7.314;2022-09-09T04:57:10;15.00;99.90
14006;DHT22;7078;51.542;7.314;2022-09-09T04:59:36;15.00;99.90
14006;DHT22;7078;51.542;7.314;2022-09-09T05:02:01;15.00;99.90
14006;DHT22;7078;51.542;7.314;2022-09-09T05:04:27;15.00;99.90
14006;DHT22;7078;51.542;7.314;2022-09-09T05:06:54;15.00;99.90
14006;DHT22;7078;51.542;7.314;2022-09-09T05:09:19;15.10;99.90
14006;DHT22;7078;51.542;7.314;2022-09-09T05:11:45;15.00;99.90
14006;DHT22;7078;51.542;7.314;2022-09-09T05:14:11;15.10;99.90
14006;DHT22;7078;51.542;7.314;2022-09-09T05:16:37;15.10;99.90
14006;DHT22;7078;51.542;7.314;2022-09-09T05:19:03;15.20;99.90
14006;DHT22;7078;51.542;7.314;2022-09-09T05:21:28;15.20;99.90
14006;DHT22;7078;51.542;7.314;2022-09-09T05:23:54;15.30;99.90
14006;DHT22;7078;51.542;7.314;2022-09-09T05:26:21;15.30;99.90
14006;DHT22;7078;51.542;7.314;2022-09-09T05:28:47;15.30;99.90
14006;DHT22;7078;51.542;7.314;2022-09-09T05:31:14;15.40;99.90
14006;DHT22;7078;51.542;7.314;2022-09-09T05:33:41;15.40;99.90
14006;DHT22;7078;51.542;7.314;2022-09-09T05:36:10;15.40;99.90
14006;DHT22;7078;51.542;7.314;2022-09-09T05:38:38;15.40;99.90
14006;DHT22;7078;51.542;7.314;2022-09-09T05:41:04;15.50;99.90
14006;DHT22;7078;51.542;7.314;2022-09-09T05:43:30;15.50;99.90
14006;DHT22;7078;51.542;7.314;2022-09-09T05:46:07;15.60;99.90
14006;DHT22;7078;51.542;7.314;2022-09-09T05:48:44;15.60;99.90
14006;DHT22;7078;51.542;7.314;2022-09-09T05:51:15;15.80;99.90
14006;DHT22;7078;51.542;7.314;2022-09-09T05:53:43;15.70;99.90
14006;DHT22;7078;51.542;7.314;2022-09-09T05:56:15;15.80;99.90
14006;DHT22;7078;51.542;7.314;2022-09-09T05:58:41;15.80;99.90
14006;DHT22;7078;51.542;7.314;2022-09-09T06:01:14;15.90;99.90
14006;DHT22;7078;51.542;7.314;2022-09-09T06:03:41;16.00;99.90
14006;DHT22;7078;51.542;7.314;2022-09-09T06:06:09;16.00;99.90
14006;DHT22;7078;51.542;7.314;2022-09-09T06:08:37;16.10;99.90
14006;DHT22;7078;51.542;7.314;2022-09-09T06:11:27;16.10;99.90
14006;DHT22;7078;51.542;7.314;2022-09-09T06:13:56;16.10;99.90
14006;DHT22;7078;51.542;7.314;2022-09-09T06:16:24;16.10;99.90
14006;DHT22;7078;51.542;7.314;2022-09-09T06:18:51;16.10;99.90
14006;DHT22;7078;51.542;7.314;2022-09-09T06:21:19;16.10;99.90
14006;DHT22;7078;51.542;7.314;2022-09-09T06:23:45;16.20;99.90
14006;DHT22;7078;51.542;7.314;2022-09-09T06:26:14;16.20;99.90
14006;DHT22;7078;51.542;7.314;2022-09-09T06:28:40;16.20;99.90
14006;DHT22;7078;51.542;7.314;2022-09-09T06:31:10;16.20;99.90
14006;DHT22;7078;51.542;7.314;2022-09-09T06:33:38;16.30;99.90
14006;DHT22;7078;51.542;7.314;2022-09-09T06:36:12;16.30;99.90
14006;DHT22;7078;51.542;7.314;2022-09-09T06:38:38;16.30;99.90
14006;DHT22;7078;51.542;7.314;2022-09-09T06:41:04;16.30;99.90
14006;DHT22;7078;51.542;7.314;2022-09-09T06:43:31;16.30;99.90
14006;DHT22;7078;51.542;7.314;2022-09-09T06:48:27;16.40;99.90
14006;DHT22;7078;51.542;7.314;2022-09-09T06:51:06;16.40;99.90
14006;DHT22;7078;51.542;7.314;2022-09-09T06:53:33;16.50;99.90
14006;DHT22;7078;51.542;7.314;2022-09-09T06:56:01;16.50;99.90
14006;DHT22;7078;51.542;7.314;2022-09-09T06:58:27;16.60;99.90
14006;DHT22;7078;51.542;7.314;2022-09-09T07:01:04;16.70;99.90
14006;DHT22;7078;51.542;7.314;2022-09-09T07:03:30;16.70;99.90
14006;DHT22;7078;51.542;7.314;2022-09-09T07:05:56;16.80;99.90
14006;DHT22;7078;51.542;7.314;2022-09-09T07:08:22;16.90;99.90
14006;DHT22;7078;51.542;7.314;2022-09-09T07:10:48;16.90;99.90
14006;DHT22;7078;51.542;7.314;2022-09-09T07:13:14;17.10;99.90
14006;DHT22;7078;51.542;7.314;2022-09-09T07:15:41;17.20;99.90
14006;DHT22;7078;51.542;7.314;2022-09-09T07:18:07;17.30;99.90
14006;DHT22;7078;51.542;7.314;2022-09-09T07:20:32;17.30;99.90
14006;DHT22;7078;51.542;7.314;2022-09-09T07:22:58;17.50;99.90
14006;DHT22;7078;51.542;7.314;2022-09-09T07:25:24;17.40;99.90
14006;DHT22;7078;51.542;7.314;2022-09-09T07:27:53;17.40;99.90
14006;DHT22;7078;51.542;7.314;2022-09-09T07:30:18;17.60;99.90
14006;DHT22;7078;51.542;7.314;2022-09-09T07:32:44;17.70;99.90
14006;DHT22;7078;51.542;7.314;2022-09-09T07:35:10;17.80;99.90
14006;DHT22;7078;51.542;7.314;2022-09-09T07:37:37;17.90;99.90
14006;DHT22;7078;51.542;7.314;2022-09-09T07:40:03;18.00;99.90
14006;DHT22;7078;51.542;7.314;2022-09-09T07:42:30;18.10;99.90
14006;DHT22;7078;51.542;7.314;2022-09-09T07:44:55;18.10;99.90
14006;DHT22;7078;51.542;7.314;2022-09-09T07:47:21;18.20;99.90
14006;DHT22;7078;51.542;7.314;2022-09-09T07:49:47;18.30;99.90
14006;DHT22;7078;51.542;7.314;2022-09-09T07:52:15;18.40;99.90
14006;DHT22;7078;51.542;7.314;2022-09-09T07:54:40;18.30;99.90
14006;DHT22;7078;51.542;7.314;2022-09-09T07:57:07;18.20;99.90
14006;DHT22;7078;51.542;7.314;2022-09-09T07:59:32;18.20;99.90
14006;DHT22;7078;51.542;7.314;2022-09-09T08:01:58;18.20;99.90
14006;DHT22;7078;51.542;7.314;2022-09-09T08:04:25;18.20;99.90
14006;DHT22;7078;51.542;7.314;2022-09-09T08:06:59;18.30;99.90
14006;DHT22;7078;51.542;7.314;2022-09-09T08:09:27;18.30;99.90
14006;DHT22;7078;51.542;7.314;2022-09-09T08:11:54;18.40;99.90
14006;DHT22;7078;51.542;7.314;2022-09-09T08:14:22;18.40;99.90
14006;DHT22;7078;51.542;7.314;2022-09-09T08:16:49;18.40;99.90
14006;DHT22;7078;51.542;7.314;2022-09-09T08:19:15;18.40;99.90
14006;DHT22;7078;51.542;7.314;2022-09-09T08:21:42;18.60;99.90
14006;DHT22;7078;51.542;7.314;2022-09-09T08:24:09;18.70;99.90
14006;DHT22;7078;51.542;7.314;2022-09-09T08:26:46;18.80;99.90
14006;DHT22;7078;51.542;7.314;2022-09-09T08:29:14;19.00;99.90
14006;DHT22;7078;51.542;7.314;2022-09-09T08:31:51;19.00;99.90
14006;DHT22;7078;51.542;7.314;2022-09-09T08:34:20;19.00;99.90
14006;DHT22;7078;51.542;7.314;2022-09-09T08:36:47;19.10;99.90
14006;DHT22;7078;51.542;7.314;2022-09-09T08:39:17;19.10;99.90
14006;DHT22;7078;51.542;7.314;2022-09-09T08:49:49;19.00;99.90
14006;DHT22;7078;51.542;7.314;2022-09-09T08:52:27;18.90;99.90
14006;DHT22;7078;51.542;7.314;2022-09-09T08:54:58;18.80;99.90
14006;DHT22;7078;51.542;7.314;2022-09-09T08:57:28;19.00;99.90
14006;DHT22;7078;51.542;7.314;2022-09-09T08:59:55;19.00;99.90
14006;DHT22;7078;51.542;7.314;2022-09-09T09:05:36;19.20;99.90
14006;DHT22;7078;51.542;7.314;2022-09-09T09:08:37;19.30;99.90
14006;DHT22;7078;51.542;7.314;2022-09-09T09:11:06;19.50;99.90
14006;DHT22;7078;51.542;7.314;2022-09-09T09:19:10;19.50;99.90
14006;DHT22;7078;51.542;7.314;2022-09-09T09:21:48;19.60;99.90
14006;DHT22;7078;51.542;7.314;2022-09-09T09:24:20;19.70;99.90
14006;DHT22;7078;51.542;7.314;2022-09-09T09:26:46;19.70;99.90
14006;DHT22;7078;51.542;7.314;2022-09-09T09:29:17;19.80;99.90
14006;DHT22;7078;51.542;7.314;2022-09-09T09:31:48;20.00;99.90
14006;DHT22;7078;51.542;7.314;2022-09-09T09:34:16;20.00;99.90
14006;DHT22;7078;51.542;7.314;2022-09-09T09:36:53;20.00;99.90
14006;DHT22;7078;51.542;7.314;2022-09-09T09:39:30;19.90;99.90
14006;DHT22;7078;51.542;7.314;2022-09-09T09:41:56;19.70;99.90
14006;DHT22;7078;51.542;7.314;2022-09-09T09:44:28;19.60;99.90
14006;DHT22;7078;51.542;7.314;2022-09-09T09:49:31;19.80;99.90
14006;DHT22;7078;51.542;7.314;2022-09-09T09:52:01;19.80;99.90
14006;DHT22;7078;51.542;7.314;2022-09-09T09:54:37;19.60;99.90
14006;DHT22;7078;51.542;7.314;2022-09-09T09:57:11;19.60;99.90
14006;DHT22;7078;51.542;7.314;2022-09-09T09:59:38;19.60;99.90
14006;DHT22;7078;51.542;7.314;2022-09-09T10:02:18;19.70;99.90
14006;DHT22;7078;51.542;7.314;2022-09-09T10:04:45;19.90;99.90
14006;DHT22;7078;51.542;7.314;2022-09-09T10:07:21;20.00;99.90
14006;DHT22;7078;51.542;7.314;2022-09-09T10:09:54;20.10;99.90
14006;DHT22;7078;51.542;7.314;2022-09-09T10:21:19;20.40;99.90
14006;DHT22;7078;51.542;7.314;2022-09-09T10:27:02;20.90;99.90
14006;DHT22;7078;51.542;7.314;2022-09-09T10:30:14;21.10;99.90
14006;DHT22;7078;51.542;7.314;2022-09-09T10:33:02;21.30;99.90
14006;DHT22;7078;51.542;7.314;2022-09-09T10:35:39;21.20;99.90
14006;DHT22;7078;51.542;7.314;2022-09-09T10:41:06;21.10;99.90
14006;DHT22;7078;51.542;7.314;2022-09-09T11:00:06;20.90;98.60
14006;DHT22;7078;51.542;7.314;2022-09-09T11:02:33;20.90;98.50
14006;DHT22;7078;51.542;7.314;2022-09-09T11:08:38;20.80;95.30
14006;DHT22;7078;51.542;7.314;2022-09-09T11:11:09;20.80;95.40
14006;DHT22;7078;51.542;7.314;2022-09-09T11:21:49;21.00;94.50
14006;DHT22;7078;51.542;7.314;2022-09-09T11:33:02;20.90;96.00
14006;DHT22;7078;51.542;7.314;2022-09-09T11:35:47;21.00;94.50
14006;DHT22;7078;51.542;7.314;2022-09-09T11:38:20;21.00;94.60
14006;DHT22;7078;51.542;7.314;2022-09-09T11:40:54;21.10;94.70
14006;DHT22;7078;51.542;7.314;2022-09-09T11:43:26;21.20;95.40
14006;DHT22;7078;51.542;7.314;2022-09-09T11:45:54;21.50;95.50
14006;DHT22;7078;51.542;7.314;2022-09-09T11:48:28;21.70;94.20
14006;DHT22;7078;51.542;7.314;2022-09-09T11:53:53;22.30;92.50
14006;DHT22;7078;51.542;7.314;2022-09-09T11:59:06;21.90;92.10
14006;DHT22;7078;51.542;7.314;2022-09-09T12:01:41;21.70;93.10
14006;DHT22;7078;51.542;7.314;2022-09-09T12:04:30;21.60;93.10
14006;DHT22;7078;51.542;7.314;2022-09-09T12:07:02;21.50;93.40
14006;DHT22;7078;51.542;7.314;2022-09-09T12:09:47;21.40;93.20
14006;DHT22;7078;51.542;7.314;2022-09-09T12:17:51;21.20;94.70
14006;DHT22;7078;51.542;7.314;2022-09-09T12:23:17;20.80;99.90
14006;DHT22;7078;51.542;7.314;2022-09-09T12:34:19;19.90;99.90
14006;DHT22;7078;51.542;7.314;2022-09-09T12:36:55;19.80;99.90
14006;DHT22;7078;51.542;7.314;2022-09-09T12:39:35;19.90;99.90
14006;DHT22;7078;51.542;7.314;2022-09-09T12:42:03;20.00;99.90
14006;DHT22;7078;51.542;7.314;2022-09-09T12:44:29;20.20;99.90
14006;DHT22;7078;51.542;7.314;2022-09-09T12:46:57;20.30;99.90
14006;DHT22;7078;51.542;7.314;2022-09-09T12:49:35;20.40;99.90
14006;DHT22;7078;51.542;7.314;2022-09-09T12:52:15;20.60;99.90
14006;DHT22;7078;51.542;7.314;2022-09-09T12:54:45;20.60;99.90
14006;DHT22;7078;51.542;7.314;2022-09-09T12:57:16;20.40;99.90
14006;DHT22;7078;51.542;7.314;2022-09-09T12:59:43;20.20;99.90
14006;DHT22;7078;51.542;7.314;2022-09-09T13:02:22;20.10;99.90
14006;DHT22;7078;51.542;7.314;2022-09-09T13:04:48;20.10;99.90
14006;DHT22;7078;51.542;7.314;2022-09-09T13:07:16;20.00;99.90
14006;DHT22;7078;51.542;7.314;2022-09-09T13:09:44;20.20;99.90
14006;DHT22;7078;51.542;7.314;2022-09-09T13:12:27;20.30;99.90
14006;DHT22;7078;51.542;7.314;2022-09-09T13:14:55;20.50;99.90
14006;DHT22;7078;51.542;7.314;2022-09-09T13:17:24;20.80;99.90
14006;DHT22;7078;51.542;7.314;2022-09-09T13:19:51;21.10;99.90
14006;DHT22;7078;51.542;7.314;2022-09-09T13:25:03;21.00;99.90
14006;DHT22;7078;51.542;7.314;2022-09-09T13:30:30;21.00;99.90
14006;DHT22;7078;51.542;7.314;2022-09-09T13:35:57;21.10;99.90
14006;DHT22;7078;51.542;7.314;2022-09-09T13:38:24;21.00;99.90
14006;DHT22;7078;51.542;7.314;2022-09-09T13:41:05;20.70;99.90
14006;DHT22;7078;51.542;7.314;2022-09-09T13:43:43;20.40;99.90
14006;DHT22;7078;51.542;7.314;2022-09-09T13:48:57;20.20;99.90
14006;DHT22;7078;51.542;7.314;2022-09-09T13:51:37;20.20;99.90
14006;DHT22;7078;51.542;7.314;2022-09-09T13:54:09;20.10;99.90
14006;DHT22;7078;51.542;7.314;2022-09-09T13:56:37;20.00;99.90
14006;DHT22;7078;51.542;7.314;2022-09-09T13:59:04;19.90;99.90
14006;DHT22;7078;51.542;7.314;2022-09-09T14:01:30;19.60;99.90
14006;DHT22;7078;51.542;7.314;2022-09-09T14:03:56;19.40;99.90
14006;DHT22;7078;51.542;7.314;2022-09-09T14:06:22;19.20;99.90
14006;DHT22;7078;51.542;7.314;2022-09-09T14:08:49;19.10;99.90
14006;DHT22;7078;51.542;7.314;2022-09-09T14:11:16;18.80;99.90
14006;DHT22;7078;51.542;7.314;2022-09-09T14:13:42;18.50;99.90
14006;DHT22;7078;51.542;7.314;2022-09-09T14:16:07;18.30;99.90
14006;DHT22;7078;51.542;7.314;2022-09-09T14:18:33;18.20;99.90
14006;DHT22;7078;51.542;7.314;2022-09-09T14:20:59;18.20;99.90
14006;DHT22;7078;51.542;7.314;2022-09-09T14:23:24;18.20;99.90
14006;DHT22;7078;51.542;7.314;2022-09-09T14:25:51;18.20;99.90
14006;DHT22;7078;51.542;7.314;2022-09-09T14:28:17;18.30;99.90
14006;DHT22;7078;51.542;7.314;2022-09-09T14:30:43;18.40;99.90
14006;DHT22;7078;51.542;7.314;2022-09-09T14:33:12;18.70;99.90
14006;DHT22;7078;51.542;7.314;2022-09-09T14:35:38;19.10;99.90
14006;DHT22;7078;51.542;7.314;2022-09-09T14:38:04;19.60;99.90
14006;DHT22;7078;51.542;7.314;2022-09-09T14:40:30;20.00;99.90
14006;DHT22;7078;51.542;7.314;2022-09-09T14:42:56;20.30;99.90
14006;DHT22;7078;51.542;7.314;2022-09-09T14:45:25;20.20;99.90
14006;DHT22;7078;51.542;7.314;2022-09-09T14:47:51;20.00;99.90
14006;DHT22;7078;51.542;7.314;2022-09-09T14:50:18;20.00;99.90
14006;DHT22;7078;51.542;7.314;2022-09-09T14:52:44;19.80;99.90
14006;DHT22;7078;51.542;7.314;2022-09-09T14:55:09;19.70;99.90
14006;DHT22;7078;51.542;7.314;2022-09-09T14:57:36;19.60;99.90
14006;DHT22;7078;51.542;7.314;2022-09-09T15:00:03;19.50;99.90
14006;DHT22;7078;51.542;7.314;2022-09-09T15:02:29;19.50;99.90
14006;DHT22;7078;51.542;7.314;2022-09-09T15:04:55;19.50;99.90
14006;DHT22;7078;51.542;7.314;2022-09-09T15:07:22;19.80;99.90
14006;DHT22;7078;51.542;7.314;2022-09-09T15:09:48;20.10;99.90
14006;DHT22;7078;51.542;7.314;2022-09-09T15:12:14;20.40;99.90
14006;DHT22;7078;51.542;7.314;2022-09-09T15:14:40;20.40;99.90
14006;DHT22;7078;51.542;7.314;2022-09-09T15:17:05;20.30;99.90
14006;DHT22;7078;51.542;7.314;2022-09-09T15:19:31;20.10;99.90
14006;DHT22;7078;51.542;7.314;2022-09-09T15:21:57;19.80;99.90
14006;DHT22;7078;51.542;7.314;2022-09-09T15:24:24;19.60;99.90
14006;DHT22;7078;51.542;7.314;2022-09-09T15:26:51;19.30;99.90
14006;DHT22;7078;51.542;7.314;2022-09-09T15:29:16;19.20;99.90
14006;DHT22;7078;51.542;7.314;2022-09-09T15:31:42;19.10;99.90
14006;DHT22;7078;51.542;7.314;2022-09-09T15:34:07;18.90;99.90
14006;DHT22;7078;51.542;7.314;2022-09-09T15:36:39;18.50;99.90
14006;DHT22;7078;51.542;7.314;2022-09-09T15:39:07;18.10;99.90
14006;DHT22;7078;51.542;7.314;2022-09-09T15:41:35;17.70;99.90
14006;DHT22;7078;51.542;7.314;2022-09-09T15:44:01;17.50;99.90
14006;DHT22;7078;51.542;7.314;2022-09-09T15:48:56;17.20;99.90
14006;DHT22;7078;51.542;7.314;2022-09-09T15:51:23;17.10;99.90
14006;DHT22;7078;51.542;7.314;2022-09-09T15:53:57;16.90;99.90
14006;DHT22;7078;51.542;7.314;2022-09-09T15:56:24;16.80;99.90
14006;DHT22;7078;51.542;7.314;2022-09-09T15:58:50;16.70;99.90
14006;DHT22;7078;51.542;7.314;2022-09-09T16:01:17;16.60;99.90
14006;DHT22;7078;51.542;7.314;2022-09-09T16:03:44;16.50;99.90
14006;DHT22;7078;51.542;7.314;2022-09-09T16:06:16;16.50;99.90
14006;DHT22;7078;51.542;7.314;2022-09-09T16:08:44;16.50;99.90
14006;DHT22;7078;51.542;7.314;2022-09-09T16:11:11;16.50;99.90
14006;DHT22;7078;51.542;7.314;2022-09-09T16:13:39;16.50;99.90
14006;DHT22;7078;51.542;7.314;2022-09-09T16:16:05;16.50;99.90
14006;DHT22;7078;51.542;7.314;2022-09-09T16:18:54;16.50;99.90
14006;DHT22;7078;51.542;7.314;2022-09-09T16:21:23;16.50;99.90
14006;DHT22;7078;51.542;7.314;2022-09-09T16:23:51;16.60;99.90
14006;DHT22;7078;51.542;7.314;2022-09-09T16:26:17;16.60;99.90
14006;DHT22;7078;51.542;7.314;2022-09-09T16:28:43;16.70;99.90
14006;DHT22;7078;51.542;7.314;2022-09-09T16:31:17;16.70;99.90
14006;DHT22;7078;51.542;7.314;2022-09-09T16:33:43;16.70;99.90
14006;DHT22;7078;51.542;7.314;2022-09-09T16:36:11;17.00;99.90
14006;DHT22;7078;51.542;7.314;2022-09-09T16:38:38;17.10;99.90
14006;DHT22;7078;51.542;7.314;2022-09-09T16:41:05;17.20;99.90
14006;DHT22;7078;51.542;7.314;2022-09-09T16:43:34;17.30;99.90
14006;DHT22;7078;51.542;7.314;2022-09-09T16:46:01;17.30;99.90
14006;DHT22;7078;51.542;7.314;2022-09-09T16:48:31;17.30;99.90
14006;DHT22;7078;51.542;7.314;2022-09-09T16:51:08;17.20;99.90
14006;DHT22;7078;51.542;7.314;2022-09-09T16:53:35;17.10;99.90
14006;DHT22;7078;51.542;7.314;2022-09-09T16:56:09;17.00;99.90
14006;DHT22;7078;51.542;7.314;2022-09-09T16:58:35;16.90;99.90
14006;DHT22;7078;51.542;7.314;2022-09-09T17:01:02;16.80;99.90
14006;DHT22;7078;51.542;7.314;2022-09-09T17:03:28;16.70;99.90
14006;DHT22;7078;51.542;7.314;2022-09-09T17:05:54;16.70;99.90
14006;DHT22;7078;51.542;7.314;2022-09-09T17:08:20;16.60;99.90
14006;DHT22;7078;51.542;7.314;2022-09-09T17:10:45;16.50;99.90
14006;DHT22;7078;51.542;7.314;2022-09-09T17:13:12;16.40;99.90
14006;DHT22;7078;51.542;7.314;2022-09-09T17:15:42;16.40;99.90
14006;DHT22;7078;51.542;7.314;2022-09-09T17:18:09;16.20;99.90
14006;DHT22;7078;51.542;7.314;2022-09-09T17:20:44;16.30;99.90
14006;DHT22;7078;51.542;7.314;2022-09-09T17:23:11;16.30;99.90
14006;DHT22;7078;51.542;7.314;2022-09-09T17:25:38;16.30;99.90
14006;DHT22;7078;51.542;7.314;2022-09-09T17:28:04;16.20;99.90
14006;DHT22;7078;51.542;7.314;2022-09-09T17:30:34;16.30;99.90
14006;DHT22;7078;51.542;7.314;2022-09-09T17:33:00;16.20;99.90
14006;DHT22;7078;51.542;7.314;2022-09-09T17:35:25;16.10;99.90
14006;DHT22;7078;51.542;7.314;2022-09-09T17:37:53;16.10;99.90
14006;DHT22;7078;51.542;7.314;2022-09-09T17:40:20;16.10;99.90
14006;DHT22;7078;51.542;7.314;2022-09-09T17:42:45;16.00;99.90
14006;DHT22;7078;51.542;7.314;2022-09-09T17:45:12;16.00;99.90
14006;DHT22;7078;51.542;7.314;2022-09-09T17:51:00;16.00;99.90
14006;DHT22;7078;51.542;7.314;2022-09-09T17:53:26;16.00;99.90
14006;DHT22;7078;51.542;7.314;2022-09-09T17:55:52;16.00;99.90
14006;DHT22;7078;51.542;7.314;2022-09-09T17:58:17;15.90;99.90
14006;DHT22;7078;51.542;7.314;2022-09-09T18:00:43;15.90;99.90
14006;DHT22;7078;51.542;7.314;2022-09-09T18:03:08;15.90;99.90
14006;DHT22;7078;51.542;7.314;2022-09-09T18:05:34;15.90;99.90
14006;DHT22;7078;51.542;7.314;2022-09-09T18:07:59;15.90;99.90
14006;DHT22;7078;51.542;7.314;2022-09-09T18:10:25;15.80;99.90
14006;DHT22;7078;51.542;7.314;2022-09-09T18:12:51;15.80;99.90
14006;DHT22;7078;51.542;7.314;2022-09-09T18:15:16;15.80;99.90
14006;DHT22;7078;51.542;7.314;2022-09-09T18:17:42;15.80;99.90
14006;DHT22;7078;51.542;7.314;2022-09-09T18:20:08;15.80;99.90
14006;DHT22;7078;51.542;7.314;2022-09-09T18:22:34;15.90;99.90
14006;DHT22;7078;51.542;7.314;2022-09-09T18:24:59;16.00;99.90
14006;DHT22;7078;51.542;7.314;2022-09-09T18:27:25;15.80;99.90
14006;DHT22;7078;51.542;7.314;2022-09-09T18:29:50;15.90;99.90
14006;DHT22;7078;51.542;7.314;2022-09-09T18:32:16;15.90;99.90
14006;DHT22;7078;51.542;7.314;2022-09-09T18:34:44;15.90;99.90
14006;DHT22;7078;51.542;7.314;2022-09-09T18:40:31;15.90;99.90
14006;DHT22;7078;51.542;7.314;2022-09-09T18:42:57;15.90;99.90
14006;DHT22;7078;51.542;7.314;2022-09-09T18:45:22;15.90;99.90
14006;DHT22;7078;51.542;7.314;2022-09-09T18:47:48;16.00;99.90